LGAVLGSA

Guest
Details From LGAV - Athens Intl Airport Elefterios Venizel
To LGSA - Khania Souda
Flight Number -
Tags generated
Created
Modified
Stats Distance 145 nm / 268 km
Max Altitude 0 ft / 0 m
Waypoints 2
Social Downloads 2
Likes 0
Share VATSIM

Download

Looking for another format? Having issues loading an existing format? Contact us
Advertisement - Login to hide

Notes

Basic altitude profile: - Ascent Rate: 3000ft/min - Ascent Speed: 500kts - Cruise Altitude: 35000ft - Cruise Speed: 450kts - Descent Rate: 1900ft/min - Descent Speed: 300kts Options: - Use NATs: no - Use PACOTS: no - Use low airways: no - Use high airways: no

Route

LGAV LGSA

ID Type Via Altitude Latitude Longitude Leg Dist Tot Dist Heading (true) Name
O LGAV APT - 0 ft / 0 m 37.93636˚ 23.94447˚ - 0 nm - Athens Intl Airport Elefterios Venizel
O LGSA APT - 0 ft / 0 m 35.53159˚ 24.15118˚ 144 nm 144 nm 176° / 176° Khania Souda

Altitude Profile

Advertisement - Login to hide

LGAV

Details ICAO LGAV (ATH)
Name Athens Intl Airport Elefterios Venizel
Region Greece
Timezone Europe/Athens (UTC+2.0)
Stats Elevation 308 ft / 94 m (AMSL)
Location 37.936357° 23.944470°
Runways 2
Magnetic Variation 4.485° E

METAR

LGAV 180920Z VRB01KT 9999 FEW030 14/05 Q1016 NOSIG

Decode

TAF

TAF TAF LGAV 180500Z 1806/1906 27012KT 9999 FEW030 BECMG 1808/1810 SCT020 BKN070 PROB30 TEMPO 1810/1818 5000 RA SCT015 BKN060 BECMG 1817/1819 FEW020 SCT070 TEMPO 1808/1818 22015KT BECMG 1822/1824 31010KT

Decode

Departure Runways

ID Width Length Bearing (true) Bearing (mag) Surface Threshold Offset Overrun Length
03L 148 ft / 45 m 12,474 ft / 3,802 m 36.51° 32.03° Asphalt 984 ft / 300 m 393 ft / 120 m
03R 148 ft / 45 m 13,131 ft / 4,002 m 36.52° 32.04° Asphalt 984 ft / 300 m 393 ft / 120 m
21L 148 ft / 45 m 13,131 ft / 4,002 m 216.54° 212.06° Asphalt 984 ft / 300 m 393 ft / 120 m
21R 148 ft / 45 m 12,474 ft / 3,802 m 216.53° 212.05° Asphalt 984 ft / 300 m 393 ft / 120 m

LGSA

Details ICAO LGSA (CHQ)
Name Khania Souda
Region Greece
Timezone Europe/Athens (UTC+2.0)
Stats Elevation 490 ft / 149 m (AMSL)
Location 35.531592° 24.151184°
Runways 1
Magnetic Variation 4.283° E

METAR

LGSA 180920Z 28017KT 9999 FEW020TCU SCT035 BKN080 15/10 Q1018

Decode

TAF

TAF TAF LGSA 180500Z 1806/1906 25015KT 9999 FEW025 SCT080 PROB40 TEMPO 1806/1821 5000 RA SCT020 BKN070 PROB30 TEMPO 1812/1818 3000 TSRA FEW010 FEW018CB BKN020 BKN070 TEMPO 1808/1821 25015G25KT

Decode

Destination Runways

ID Width Length Bearing (true) Bearing (mag) Surface Threshold Offset Overrun Length
11 148 ft / 45 m 10,967 ft / 3,343 m 111.40° 107.12° Asphalt 0 ft / 0 m 735 ft / 224 m
29 148 ft / 45 m 10,967 ft / 3,343 m 291.42° 287.14° Asphalt 0 ft / 0 m 900 ft / 274 m

Popular Alternatives